Time;durP1;ratioP1;P1;durP2;ratioP2;P2;SDS_P1;SDS_P2;PMS_P1;PMS_P2;Temp;Humidity;BMP_temperature;BMP_pressure;BME280_temperature;BME280_humidity;BME280_pressure;Samples;Min_cycle;Max_cycle;Signal;HPM_P1;HPM_P2
2021/09/06 00:01:40;;;;;;;;;24.25;20.50;;;;;20.94;68.89;101945.28;4922424;28;45330;-78
2021/09/06 00:04:05;;;;;;;;;21.50;18.75;;;;;20.91;68.41;101935.63;4922100;28;45503;-79
2021/09/06 00:06:32;;;;;;;;;19.50;18.75;;;;;20.88;68.36;101943.84;4922059;28;45771;-80
2021/09/06 00:08:58;;;;;;;;;20.50;18.25;;;;;20.81;68.31;101926.44;4921958;28;46336;-80
2021/09/06 00:11:23;;;;;;;;;19.75;19.75;;;;;20.86;68.28;101944.88;4911517;28;45469;-79
2021/09/06 00:13:50;;;;;;;;;18.00;16.25;;;;;20.84;68.49;101941.44;4917805;28;45271;-78
2021/09/06 00:16:16;;;;;;;;;24.50;22.00;;;;;20.79;68.60;101939.03;4920373;28;45553;-78
2021/09/06 00:18:42;;;;;;;;;22.00;19.25;;;;;20.77;68.97;101935.56;4913861;28;46247;-78
2021/09/06 00:21:07;;;;;;;;;21.25;18.75;;;;;20.75;68.68;101935.66;4921797;28;45414;-78
2021/09/06 00:23:35;;;;;;;;;24.00;21.00;;;;;20.76;68.39;101931.19;4912701;28;45515;-83
2021/09/06 00:26:01;;;;;;;;;22.50;20.25;;;;;20.68;68.63;101919.13;4915553;28;45218;-84
2021/09/06 00:28:26;;;;;;;;;21.25;19.50;;;;;20.73;68.95;101931.34;4922015;28;46410;-84
2021/09/06 00:30:52;;;;;;;;;22.50;21.00;;;;;20.70;69.21;101932.41;4923352;28;45185;-83
2021/09/06 00:33:18;;;;;;;;;26.00;24.00;;;;;20.69;68.52;101936.88;4925416;28;45571;-82
2021/09/06 00:35:45;;;;;;;;;23.00;21.75;;;;;20.66;68.71;101933.53;4925048;28;45542;-82
2021/09/06 00:38:11;;;;;;;;;26.00;22.50;;;;;20.63;68.56;101926.53;4909691;28;45333;-82
2021/09/06 00:40:36;;;;;;;;;24.25;23.50;;;;;20.63;69.15;101934.56;4906136;28;45300;-80
2021/09/06 00:43:02;;;;;;;;;22.25;21.25;;;;;20.63;69.25;101939.91;4906449;29;45306;-80
2021/09/06 00:45:27;;;;;;;;;20.75;19.00;;;;;20.60;69.17;101934.72;4912776;28;45438;-81
2021/09/06 00:47:52;;;;;;;;;24.25;21.75;;;;;20.59;68.85;101941.03;4924904;28;45429;-83
2021/09/06 00:50:18;;;;;;;;;24.50;22.00;;;;;20.56;69.36;101939.41;4925149;28;45390;-83
2021/09/06 00:52:46;;;;;;;;;25.50;21.75;;;;;20.54;69.42;101941.31;4923437;28;45259;-83
2021/09/06 00:55:14;;;;;;;;;20.50;20.00;;;;;20.54;69.54;101946.63;4921719;28;45561;-83
2021/09/06 00:57:40;;;;;;;;;24.50;21.25;;;;;20.55;69.76;101953.69;4924603;28;45455;-83
2021/09/06 01:00:07;;;;;;;;;20.00;19.50;;;;;20.52;69.29;101951.19;4924269;28;45410;-83
2021/09/06 01:02:33;;;;;;;;;19.75;19.25;;;;;20.48;69.86;101951.44;4924806;28;45417;-83
2021/09/06 01:04:58;;;;;;;;;24.50;21.75;;;;;20.44;69.32;101946.28;4923312;28;46293;-82
2021/09/06 01:07:24;;;;;;;;;18.25;16.50;;;;;20.44;68.61;101946.28;4924641;28;45685;-82
2021/09/06 01:09:51;;;;;;;;;22.50;21.75;;;;;20.43;69.51;101939.22;4924781;28;45694;-84
2021/09/06 01:12:16;;;;;;;;;20.00;19.50;;;;;20.44;68.95;101940.97;4914526;28;45265;-84
2021/09/06 01:14:42;;;;;;;;;21.75;20.75;;;;;20.50;69.21;101945.06;4917244;28;45217;-84
2021/09/06 01:17:08;;;;;;;;;20.75;18.25;;;;;20.50;69.41;101938.88;4905752;28;46592;-84
2021/09/06 01:19:34;;;;;;;;;21.25;19.50;;;;;20.42;69.92;101931.31;4905378;28;45365;-84
2021/09/06 01:21:59;;;;;;;;;23.25;21.50;;;;;20.41;69.49;101927.78;4905819;28;45426;-83
2021/09/06 01:24:25;;;;;;;;;26.75;24.50;;;;;20.40;69.39;101931.38;4908170;28;45407;-84
2021/09/06 01:26:50;;;;;;;;;21.50;19.50;;;;;20.37;69.44;101931.56;4923873;28;47719;-82
2021/09/06 01:29:16;;;;;;;;;22.50;19.25;;;;;20.35;69.39;101931.63;4924126;28;45440;-83
2021/09/06 01:31:41;;;;;;;;;26.50;23.25;;;;;20.33;69.77;101943.34;4913008;28;45438;-80
2021/09/06 01:34:09;;;;;;;;;20.75;20.00;;;;;20.31;69.67;101935.44;4905086;29;45446;-81
2021/09/06 01:36:35;;;;;;;;;21.75;19.50;;;;;20.25;69.83;101941.09;4905348;29;45298;-81
2021/09/06 01:39:00;;;;;;;;;21.50;21.00;;;;;20.22;70.01;101939.47;4905349;29;45558;-81
2021/09/06 01:41:26;;;;;;;;;26.75;24.00;;;;;20.23;70.50;101949.19;4889775;29;45402;-79
2021/09/06 01:43:51;;;;;;;;;27.25;21.50;;;;;20.17;70.12;101946.88;4905137;28;45245;-79
2021/09/06 01:46:16;;;;;;;;;25.00;21.75;;;;;20.20;70.58;101949.34;4905521;28;45451;-79
2021/09/06 01:48:42;;;;;;;;;22.50;22.25;;;;;20.13;70.44;101946.19;4910225;28;45242;-79
2021/09/06 01:51:07;;;;;;;;;23.25;22.50;;;;;20.14;70.40;101949.72;4904524;28;45327;-80
2021/09/06 01:53:33;;;;;;;;;23.00;20.00;;;;;20.14;70.27;101960.38;4920643;28;45495;-79
2021/09/06 01:55:58;;;;;;;;;23.50;22.00;;;;;20.12;70.68;101959.63;4922541;28;46212;-79
2021/09/06 01:58:24;;;;;;;;;24.75;22.75;;;;;20.08;70.38;101958.00;4905120;29;45410;-79
2021/09/06 02:00:50;;;;;;;;;22.50;21.50;;;;;20.09;70.76;101968.63;4904945;29;45414;-79
2021/09/06 02:03:15;;;;;;;;;20.75;19.00;;;;;20.07;70.78;101964.31;4905047;29;45454;-79
2021/09/06 02:05:41;;;;;;;;;26.50;23.50;;;;;20.04;70.45;101965.31;4914980;28;46341;-79
2021/09/06 02:08:06;;;;;;;;;20.50;17.50;;;;;19.98;70.77;101954.97;4923920;28;45399;-79
2021/09/06 02:10:31;;;;;;;;;21.50;20.75;;;;;19.97;70.99;101954.13;4922822;28;45361;-79
2021/09/06 02:12:57;;;;;;;;;28.25;23.00;;;;;19.97;70.81;101959.47;4914796;28;45559;-79
2021/09/06 02:15:22;;;;;;;;;24.50;23.25;;;;;19.94;70.58;101953.44;4923369;28;45491;-79
2021/09/06 02:17:47;;;;;;;;;21.50;20.25;;;;;19.95;70.87;101957.81;4922010;28;45311;-79
2021/09/06 02:20:13;;;;;;;;;21.00;18.50;;;;;19.89;70.63;101953.69;4917937;28;45764;-79
2021/09/06 02:22:38;;;;;;;;;25.25;22.75;;;;;19.90;71.01;101953.56;4904734;29;45553;-79
2021/09/06 02:25:04;;;;;;;;;25.75;21.25;;;;;19.89;70.72;101956.34;4904602;28;46209;-79
2021/09/06 02:27:30;;;;;;;;;23.50;21.00;;;;;19.90;70.61;101964.25;4904791;29;45352;-79
2021/09/06 02:29:55;;;;;;;;;24.25;19.25;;;;;19.89;70.99;101957.22;4921950;28;45285;-79
2021/09/06 02:32:21;;;;;;;;;22.75;20.25;;;;;19.82;71.16;101958.47;4923749;28;45260;-79
2021/09/06 02:34:46;;;;;;;;;21.00;20.00;;;;;19.81;71.04;101955.88;4913597;28;46104;-80
2021/09/06 02:37:12;;;;;;;;;26.00;21.50;;;;;19.79;71.36;101962.16;4904341;29;45210;-80
2021/09/06 02:39:37;;;;;;;;;25.25;22.00;;;;;19.76;71.15;101957.00;4904924;28;45539;-80
2021/09/06 02:42:03;;;;;;;;;26.25;22.75;;;;;19.75;71.53;101965.09;4904371;28;45207;-80
2021/09/06 02:44:30;;;;;;;;;22.25;21.25;;;;;19.72;71.16;101960.78;4904133;29;46209;-82
2021/09/06 02:46:56;;;;;;;;;27.25;24.25;;;;;19.71;71.35;101966.16;4894898;28;45300;-81
2021/09/06 02:49:21;;;;;;;;;19.50;19.50;;;;;19.71;71.61;101969.69;4894822;29;45551;-77
2021/09/06 02:51:47;;;;;;;;;23.50;21.50;;;;;19.70;71.56;101967.13;4922194;28;45426;-76
2021/09/06 02:54:15;;;;;;;;;22.00;18.50;;;;;19.67;71.47;101976.16;4922557;28;45319;-76
2021/09/06 02:56:40;;;;;;;;;21.25;20.25;;;;;19.65;71.38;101970.91;4923115;28;45241;-76
2021/09/06 02:59:06;;;;;;;;;27.00;24.25;;;;;19.63;71.35;101979.94;4922851;28;45240;-76
2021/09/06 03:01:31;;;;;;;;;22.75;19.25;;;;;19.60;71.90;101970.28;4903993;28;45282;-77
2021/09/06 03:03:56;;;;;;;;;25.00;20.75;;;;;19.59;71.79;101976.53;4906796;28;45256;-80
2021/09/06 03:06:22;;;;;;;;;28.00;23.00;;;;;19.59;71.68;101970.34;4920781;28;45423;-81
2021/09/06 03:08:47;;;;;;;;;28.75;21.25;;;;;19.53;71.46;101959.06;4920808;28;45272;-79
2021/09/06 03:11:13;;;;;;;;;21.50;20.00;;;;;19.56;71.40;101966.03;4912344;28;45504;-77
2021/09/06 03:13:38;;;;;;;;;20.75;20.75;;;;;19.55;71.58;101970.53;4918214;28;45284;-78
2021/09/06 03:16:03;;;;;;;;;21.75;20.00;;;;;19.53;71.68;101967.06;4921310;28;45505;-78
2021/09/06 03:18:29;;;;;;;;;22.00;20.00;;;;;19.52;71.97;101972.47;4923144;28;45304;-78
2021/09/06 03:20:54;;;;;;;;;22.25;20.75;;;;;19.48;71.53;101969.13;4922055;28;45336;-80
2021/09/06 03:23:19;;;;;;;;;24.75;23.25;;;;;19.50;71.70;101972.56;4905618;28;47243;-78
2021/09/06 03:25:45;;;;;;;;;23.50;22.00;;;;;19.48;71.77;101970.91;4922767;28;45377;-78
2021/09/06 03:28:10;;;;;;;;;21.50;17.50;;;;;19.49;71.95;101976.16;4922943;28;45408;-78
2021/09/06 03:30:35;;;;;;;;;23.50;23.25;;;;;19.45;71.70;101974.59;4922516;28;45405;-78
2021/09/06 03:33:01;;;;;;;;;24.75;24.25;;;;;19.44;71.69;101968.41;4920788;28;47362;-77
2021/09/06 03:35:26;;;;;;;;;21.50;19.75;;;;;19.39;71.83;101961.56;4903392;29;45376;-78
2021/09/06 03:37:51;;;;;;;;;19.75;19.75;;;;;19.40;71.27;101971.31;4918871;28;45526;-78
2021/09/06 03:40:17;;;;;;;;;24.50;24.00;;;;;19.37;71.86;101974.13;4908885;28;45428;-78
2021/09/06 03:42:42;;;;;;;;;22.75;21.00;;;;;19.34;71.88;101968.00;4903386;29;45470;-80
2021/09/06 03:45:08;;;;;;;;;22.50;21.50;;;;;19.32;71.71;101969.91;4903517;29;45330;-79
2021/09/06 03:47:33;;;;;;;;;23.25;22.25;;;;;19.33;71.65;101966.28;4918277;28;45225;-80
2021/09/06 03:49:59;;;;;;;;;22.50;20.25;;;;;19.31;72.01;101968.16;4914264;28;45412;-83
2021/09/06 03:52:24;;;;;;;;;26.25;23.00;;;;;19.30;71.75;101966.44;4886257;29;46041;-80
2021/09/06 03:54:50;;;;;;;;;27.00;24.50;;;;;19.31;71.55;101962.81;4902063;29;45760;-80
2021/09/06 03:57:15;;;;;;;;;21.25;19.75;;;;;19.30;71.80;101962.91;4903675;29;45293;-80
2021/09/06 03:59:40;;;;;;;;;24.25;21.75;;;;;19.28;71.61;101965.66;4903239;29;45150;-80
2021/09/06 04:02:06;;;;;;;;;23.75;20.75;;;;;19.26;71.72;101970.19;4903303;29;45234;-80
2021/09/06 04:04:31;;;;;;;;;24.75;22.75;;;;;19.25;71.65;101967.63;4911690;28;45230;-83
2021/09/06 04:06:56;;;;;;;;;23.25;22.00;;;;;19.21;72.10;101959.75;4909197;28;45465;-83
2021/09/06 04:09:23;;;;;;;;;24.25;22.50;;;;;19.16;71.87;101956.44;4919621;28;45426;-81
2021/09/06 04:11:49;;;;;;;;;23.50;21.75;;;;;19.20;72.06;101966.06;4916022;28;45503;-82
2021/09/06 04:14:16;;;;;;;;;21.50;21.50;;;;;19.14;71.66;101960.97;4921990;28;45479;-81
2021/09/06 04:16:42;;;;;;;;;18.00;17.25;;;;;19.16;72.26;101969.75;4920871;28;45490;-81
2021/09/06 04:19:07;;;;;;;;;24.25;23.00;;;;;19.12;72.02;101969.06;4921829;28;45500;-83
2021/09/06 04:21:32;;;;;;;;;23.75;20.00;;;;;19.14;72.03;101965.47;4922107;28;45358;-79
2021/09/06 04:23:58;;;;;;;;;25.00;22.75;;;;;19.08;71.84;101962.16;4888666;29;45390;-79
2021/09/06 04:26:23;;;;;;;;;23.50;21.50;;;;;19.10;71.75;101970.94;4886286;29;45692;-82
2021/09/06 04:28:51;;;;;;;;;25.00;23.50;;;;;19.07;71.95;101964.91;4902909;29;45640;-83
2021/09/06 04:31:16;;;;;;;;;24.75;20.00;;;;;19.04;71.86;101965.91;4901563;29;47117;-73
2021/09/06 04:33:41;;;;;;;;;30.25;24.50;;;;;19.01;72.05;101966.09;4912316;28;45483;-75
2021/09/06 04:36:07;;;;;;;;;19.50;18.00;;;;;19.01;71.93;101977.56;4918232;28;45213;-82
2021/09/06 04:38:32;;;;;;;;;22.75;21.75;;;;;19.00;72.37;101973.22;4921939;28;46412;-82
2021/09/06 04:40:58;;;;;;;;;24.00;22.25;;;;;19.01;72.12;101982.91;4904555;28;48076;-82
2021/09/06 04:43:23;;;;;;;;;22.50;21.75;;;;;18.99;71.94;101984.78;4921500;28;45622;-82
2021/09/06 04:45:49;;;;;;;;;23.00;22.50;;;;;18.99;72.10;101989.25;4901632;28;45290;-80
2021/09/06 04:48:14;;;;;;;;;23.00;19.50;;;;;18.97;72.60;101985.78;4917595;28;45464;-80
2021/09/06 04:50:39;;;;;;;;;22.25;21.25;;;;;18.94;71.93;101988.63;4911401;28;46442;-80
2021/09/06 04:53:05;;;;;;;;;22.75;22.25;;;;;18.96;72.16;101995.63;4902545;29;45442;-80
2021/09/06 04:55:30;;;;;;;;;21.75;21.50;;;;;18.92;71.87;101995.81;4902850;29;45467;-77
2021/09/06 04:57:56;;;;;;;;;25.00;22.75;;;;;18.91;72.52;101994.97;4904463;28;45372;-79
2021/09/06 05:00:22;;;;;;;;;23.00;22.75;;;;;18.93;72.12;102005.53;4921285;28;46286;-85
2021/09/06 05:02:48;;;;;;;;;20.50;18.50;;;;;18.88;72.22;101997.78;4903943;28;45329;-84
2021/09/06 05:05:13;;;;;;;;;24.25;23.75;;;;;18.86;72.15;102002.31;4916196;28;45334;-84
2021/09/06 05:07:38;;;;;;;;;22.75;20.25;;;;;18.84;72.15;102006.88;4899734;29;45259;-84
2021/09/06 05:10:04;;;;;;;;;25.75;25.25;;;;;18.83;72.31;102010.44;4913221;28;46923;-84
2021/09/06 05:12:29;;;;;;;;;23.00;19.75;;;;;18.84;72.58;102010.38;4916978;28;45197;-83
2021/09/06 05:14:55;;;;;;;;;26.00;23.75;;;;;18.83;72.75;102016.66;4904028;28;45306;-77
2021/09/06 05:17:20;;;;;;;;;26.50;23.25;;;;;18.82;72.49;102020.22;4920561;28;45391;-80
2021/09/06 05:19:45;;;;;;;;;24.00;23.25;;;;;18.81;72.72;102028.31;4907323;28;47310;-81
2021/09/06 05:22:11;;;;;;;;;28.00;23.00;;;;;18.78;72.37;102024.00;4909515;28;45440;-81
2021/09/06 05:24:37;;;;;;;;;25.00;21.50;;;;;18.80;72.42;102023.91;4905587;29;45217;-80
2021/09/06 05:27:03;;;;;;;;;28.00;23.75;;;;;18.75;72.66;102018.81;4913703;28;45345;-81
2021/09/06 05:29:28;;;;;;;;;26.25;26.00;;;;;18.75;72.74;102024.13;4907796;28;45519;-83
2021/09/06 05:31:54;;;;;;;;;33.75;26.75;;;;;18.74;72.61;102025.91;4924067;28;45340;-83
2021/09/06 05:34:19;;;;;;;;;28.00;27.25;;;;;18.77;72.72;102038.22;4893357;29;45553;-82
2021/09/06 05:36:45;;;;;;;;;26.75;24.75;;;;;18.75;72.68;102037.44;4912713;28;45375;-79
2021/09/06 05:39:10;;;;;;;;;24.25;23.25;;;;;18.80;72.56;102050.53;4912338;28;45498;-80
2021/09/06 05:41:36;;;;;;;;;23.50;20.75;;;;;18.81;72.98;102049.63;4905415;28;45313;-80
2021/09/06 05:44:05;;;;;;;;;23.75;23.75;;;;;18.78;73.12;102053.28;4905193;29;45731;-79
2021/09/06 05:46:31;;;;;;;;;26.25;24.50;;;;;18.84;72.83;102066.28;4912601;28;46098;-79
2021/09/06 05:48:57;;;;;;;;;26.50;24.25;;;;;18.80;73.27;102063.84;4904894;29;46722;-79
2021/09/06 05:51:22;;;;;;;;;26.25;24.25;;;;;18.81;72.90;102065.59;4905287;28;45438;-77
2021/09/06 05:53:48;;;;;;;;;27.50;23.75;;;;;18.83;72.88;102069.91;4920253;28;45187;-76
2021/09/06 05:56:18;;;;;;;;;25.25;23.75;;;;;18.81;72.97;102066.47;4890940;29;45464;-77
2021/09/06 05:58:44;;;;;;;;;24.75;23.25;;;;;18.83;73.30;102069.91;4906178;28;46088;-77
2021/09/06 06:01:09;;;;;;;;;24.75;24.50;;;;;18.85;73.25;102069.84;4904890;28;45142;-77
2021/09/06 06:03:34;;;;;;;;;28.75;26.50;;;;;18.85;73.53;102073.38;4887735;29;45326;-77
2021/09/06 06:06:00;;;;;;;;;32.75;27.25;;;;;18.88;72.95;102078.56;4904882;29;45218;-86
2021/09/06 06:08:25;;;;;;;;;30.00;29.00;;;;;18.87;73.58;102075.94;4904753;28;45338;-85
2021/09/06 06:10:50;;;;;;;;;24.00;23.25;;;;;18.89;73.35;102072.28;4912947;28;45250;-83
2021/09/06 06:13:16;;;;;;;;;26.50;25.00;;;;;18.93;73.59;102080.13;4902170;28;45462;-83
2021/09/06 06:15:41;;;;;;;;;26.00;25.00;;;;;18.94;73.29;102077.38;4917488;28;45489;-83
2021/09/06 06:18:06;;;;;;;;;23.75;21.25;;;;;18.96;73.87;102085.31;4916686;28;46206;-82
2021/09/06 06:20:32;;;;;;;;;30.25;27.50;;;;;19.00;73.78;102081.56;4906317;28;45991;-83
2021/09/06 06:22:57;;;;;;;;;28.25;26.25;;;;;19.02;73.69;102087.69;4921273;28;45347;-86
2021/09/06 06:25:23;;;;;;;;;25.00;21.75;;;;;19.04;74.03;102093.78;4914448;28;46116;-77
2021/09/06 06:27:48;;;;;;;;;30.25;28.25;;;;;19.06;73.92;102096.41;4904797;28;45389;-74
2021/09/06 06:30:14;;;;;;;;;26.00;25.50;;;;;19.07;73.58;102085.66;4907401;28;45451;-78
2021/09/06 06:32:39;;;;;;;;;32.25;27.50;;;;;19.10;73.68;102089.97;4904656;28;45595;-76
2021/09/06 06:35:05;;;;;;;;;30.25;29.50;;;;;19.16;72.87;102099.50;4905657;28;45334;-78
2021/09/06 06:37:30;;;;;;;;;29.75;28.75;;;;;19.16;72.24;102095.00;4904383;29;45525;-77
2021/09/06 06:39:56;;;;;;;;;28.75;26.75;;;;;19.25;71.57;102099.06;4913193;28;45445;-74
2021/09/06 06:42:21;;;;;;;;;31.50;28.50;;;;;19.33;72.03;102107.53;4923275;28;45353;-74
2021/09/06 06:44:46;;;;;;;;;30.75;28.00;;;;;19.43;70.84;102104.44;4923088;28;45693;-74
2021/09/06 06:47:12;;;;;;;;;33.00;31.00;;;;;19.52;70.10;102096.00;4923415;28;45611;-74
2021/09/06 06:49:37;;;;;;;;;24.25;23.50;;;;;19.65;70.74;102098.06;4923220;28;45305;-74
2021/09/06 06:52:03;;;;;;;;;31.25;28.50;;;;;19.74;71.50;102102.91;4923733;28;45383;-74
2021/09/06 06:54:28;;;;;;;;;28.50;26.00;;;;;19.81;69.74;102098.13;4908125;28;45589;-74
2021/09/06 06:56:53;;;;;;;;;27.00;26.00;;;;;19.86;70.28;102101.41;4921718;28;47379;-74
2021/09/06 06:59:19;;;;;;;;;30.25;26.75;;;;;19.93;70.67;102101.13;4921690;28;45251;-74
2021/09/06 07:01:44;;;;;;;;;34.25;25.50;;;;;19.98;69.45;102112.41;4920118;28;45522;-74
2021/09/06 07:04:10;;;;;;;;;26.25;24.00;;;;;20.02;70.12;102103.31;4921330;28;45945;-74
2021/09/06 07:06:35;;;;;;;;;20.50;19.00;;;;;20.09;69.09;102111.84;4922883;28;45250;-74
2021/09/06 07:09:01;;;;;;;;;20.50;19.25;;;;;20.15;67.60;102119.56;4912734;28;45759;-74
2021/09/06 07:11:26;;;;;;;;;27.00;23.50;;;;;20.20;67.53;102112.19;4907271;28;45411;-74
2021/09/06 07:13:52;;;;;;;;;19.25;19.25;;;;;20.24;68.36;102115.56;4919067;28;45527;-74
2021/09/06 07:16:17;;;;;;;;;26.25;24.50;;;;;20.31;67.32;102116.09;4913865;28;48122;-74
2021/09/06 07:18:43;;;;;;;;;20.75;20.50;;;;;20.36;67.67;102114.06;4920557;28;45373;-74
2021/09/06 07:21:08;;;;;;;;;20.50;20.50;;;;;20.40;67.04;102117.41;4921905;28;45307;-74
2021/09/06 07:23:34;;;;;;;;;24.50;22.50;;;;;20.44;65.91;102121.66;4904519;28;45474;-75
2021/09/06 07:25:59;;;;;;;;;24.50;22.25;;;;;20.53;65.81;102125.63;4922435;28;46283;-74
2021/09/06 07:28:24;;;;;;;;;19.75;18.25;;;;;20.60;66.18;102123.47;4918675;28;45410;-75
2021/09/06 07:30:50;;;;;;;;;27.00;21.25;;;;;20.67;66.49;102125.75;4912065;28;45470;-75
2021/09/06 07:33:15;;;;;;;;;27.25;26.00;;;;;20.73;64.85;102123.69;4922483;28;45423;-75
2021/09/06 07:35:40;;;;;;;;;26.25;23.00;;;;;20.79;65.61;102128.72;4922414;28;46258;-74
2021/09/06 07:38:06;;;;;;;;;25.25;23.50;;;;;20.89;64.88;102137.94;4905143;28;45380;-74
2021/09/06 07:40:31;;;;;;;;;31.25;26.50;;;;;20.94;64.86;102131.50;4922569;28;45432;-74
2021/09/06 07:42:56;;;;;;;;;24.50;22.00;;;;;21.04;64.66;102137.22;4893266;28;47080;-74
2021/09/06 07:45:22;;;;;;;;;23.75;23.25;;;;;21.09;64.59;102132.44;4902056;29;46960;-74
2021/09/06 07:47:47;;;;;;;;;22.50;20.00;;;;;21.17;65.29;102134.69;4916175;28;45232;-74
2021/09/06 07:50:14;;;;;;;;;36.25;30.00;;;;;21.24;65.29;102136.06;4922615;28;45860;-74
2021/09/06 07:52:40;;;;;;;;;31.00;22.50;;;;;21.27;64.67;102146.59;4922372;28;45411;-74
2021/09/06 07:55:07;;;;;;;;;27.25;23.75;;;;;21.35;64.55;102140.81;4922565;28;46524;-74
2021/09/06 07:57:33;;;;;;;;;25.25;24.00;;;;;21.38;63.53;102140.66;4922384;28;45273;-74
2021/09/06 07:59:58;;;;;;;;;22.50;19.50;;;;;21.44;63.39;102152.78;4918919;28;45562;-77
2021/09/06 08:02:24;;;;;;;;;23.25;21.50;;;;;21.48;62.75;102138.31;4920241;28;45600;-78
2021/09/06 08:04:49;;;;;;;;;24.50;21.50;;;;;21.56;63.52;102148.56;4922031;28;46167;-78
2021/09/06 08:07:14;;;;;;;;;21.25;20.25;;;;;21.61;62.98;102143.81;4921499;28;45474;-74
2021/09/06 08:09:40;;;;;;;;;21.75;18.50;;;;;21.65;63.27;102142.69;4902076;28;45446;-74
2021/09/06 08:12:07;;;;;;;;;25.00;22.00;;;;;21.71;63.17;102154.81;4909325;28;45569;-74
2021/09/06 08:14:32;;;;;;;;;21.50;19.50;;;;;21.75;62.90;102151.03;4907922;28;45532;-74
2021/09/06 08:16:58;;;;;;;;;17.50;17.50;;;;;21.78;62.65;102163.38;4903602;28;45404;-74
2021/09/06 08:19:27;;;;;;;;;21.75;20.25;;;;;21.80;62.33;102146.25;4914237;28;45258;-74
2021/09/06 08:21:53;;;;;;;;;23.50;21.75;;;;;21.86;61.40;102157.56;4902933;29;45489;-74
2021/09/06 08:24:19;;;;;;;;;22.75;19.25;;;;;21.92;61.58;102157.25;4906663;28;45686;-74
2021/09/06 08:26:44;;;;;;;;;21.75;19.25;;;;;22.00;61.93;102159.47;4905264;28;45280;-74
2021/09/06 08:29:09;;;;;;;;;23.25;19.25;;;;;22.04;61.00;102150.28;4903014;29;45344;-74
2021/09/06 08:31:35;;;;;;;;;21.00;20.50;;;;;22.09;61.20;102152.69;4904411;28;45464;-74
2021/09/06 08:34:01;;;;;;;;;21.25;20.75;;;;;22.12;61.35;102161.41;4919778;28;46524;-74
2021/09/06 08:36:26;;;;;;;;;26.00;20.25;;;;;22.20;60.72;102158.25;4919416;28;45479;-74
2021/09/06 08:38:51;;;;;;;;;24.25;23.25;;;;;22.25;60.74;102157.97;4902998;29;45340;-74
2021/09/06 08:41:17;;;;;;;;;20.75;15.50;;;;;22.32;60.90;102158.47;4904852;28;45455;-74
2021/09/06 08:43:43;;;;;;;;;24.50;22.50;;;;;22.36;61.06;102154.66;4907824;28;46343;-74
2021/09/06 08:46:08;;;;;;;;;20.50;19.00;;;;;22.37;60.90;102149.19;4911891;28;45683;-74
2021/09/06 08:48:34;;;;;;;;;21.00;18.00;;;;;22.42;60.25;102148.06;4913375;28;45558;-74
2021/09/06 08:50:59;;;;;;;;;23.00;17.25;;;;;22.52;59.97;102153.72;4920516;28;45589;-74
2021/09/06 08:53:25;;;;;;;;;21.50;19.50;;;;;22.58;59.82;102151.50;4914224;28;46295;-74
2021/09/06 08:55:53;;;;;;;;;20.75;18.25;;;;;22.63;60.20;102150.34;4905845;28;45196;-74
2021/09/06 08:58:19;;;;;;;;;22.50;19.50;;;;;22.68;59.59;102158.97;4909276;28;45448;-74
2021/09/06 09:00:50;;;;;;;;;19.75;18.25;;;;;22.72;59.97;102157.00;4905553;29;45518;-74
2021/09/06 09:03:16;;;;;;;;;22.25;18.50;;;;;22.75;59.00;102151.41;4906176;28;45434;-74
2021/09/06 09:06:06;;;;;;;;;20.25;18.25;;;;;22.80;58.55;102158.22;4921360;28;45463;-74
2021/09/06 09:08:32;;;;;;;;;20.75;19.25;;;;;22.84;59.61;102158.03;4924977;28;45451;-74
2021/09/06 09:11:05;;;;;;;;;18.00;16.75;;;;;22.84;59.95;102155.34;4920772;28;45285;-74
2021/09/06 09:13:33;;;;;;;;;21.75;18.00;;;;;22.85;59.91;102157.06;4890059;29;48582;-74
2021/09/06 09:15:59;;;;;;;;;18.25;16.50;;;;;22.86;59.58;102153.44;4917982;28;45633;-74
2021/09/06 09:18:28;;;;;;;;;19.25;17.75;;;;;22.90;59.56;102150.47;4905902;28;45416;-74
2021/09/06 09:21:05;;;;;;;;;18.00;14.25;;;;;22.91;59.01;102149.50;4906946;28;45234;-74
2021/09/06 09:23:47;;;;;;;;;20.25;16.50;;;;;22.97;58.22;102150.06;4907449;28;47375;-74
2021/09/06 09:26:13;;;;;;;;;17.75;15.75;;;;;23.06;58.65;102145.94;4923861;28;45874;-74
2021/09/06 09:28:42;;;;;;;;;19.00;16.00;;;;;23.09;59.04;102145.75;4907503;28;45287;-74
2021/09/06 09:31:20;;;;;;;;;19.25;17.50;;;;;23.11;58.38;102149.19;4924187;28;45621;-74
2021/09/06 09:33:51;;;;;;;;;18.00;17.00;;;;;23.18;57.15;102150.50;4924416;28;46561;-74
2021/09/06 09:36:34;;;;;;;;;17.00;14.25;;;;;23.26;57.36;102158.91;4922625;28;45341;-74
2021/09/06 09:39:17;;;;;;;;;18.25;15.25;;;;;23.32;56.91;102156.78;4914198;28;45390;-74
2021/09/06 09:41:47;;;;;;;;;19.00;17.25;;;;;23.34;57.54;102155.72;4919509;28;45423;-74
2021/09/06 09:44:21;;;;;;;;;19.75;18.25;;;;;23.35;58.20;102152.09;4907963;28;46218;-74
2021/09/06 09:47:02;;;;;;;;;16.25;14.50;;;;;23.33;58.43;102159.38;4924509;28;45698;-74
2021/09/06 09:49:30;;;;;;;;;16.25;16.25;;;;;23.31;58.00;102153.22;4912547;28;45304;-74
2021/09/06 09:51:56;;;;;;;;;15.00;15.00;;;;;23.27;57.25;102162.44;4912227;28;45582;-74
2021/09/06 09:54:21;;;;;;;;;15.75;15.75;;;;;23.26;58.63;102148.16;4919275;28;45486;-74
2021/09/06 09:56:48;;;;;;;;;20.25;19.75;;;;;23.25;58.62;102154.50;4906844;28;45362;-74
2021/09/06 09:59:15;;;;;;;;;19.00;16.75;;;;;23.24;58.73;102152.78;4904959;29;45416;-74
2021/09/06 10:01:45;;;;;;;;;14.25;13.25;;;;;23.22;56.76;102149.34;4906753;28;45355;-74
2021/09/06 10:04:13;;;;;;;;;14.75;13.75;;;;;23.24;57.98;102143.88;4917292;28;46524;-74
2021/09/06 10:06:41;;;;;;;;;16.75;16.75;;;;;23.24;58.06;102143.88;4906895;28;45584;-74
2021/09/06 10:09:06;;;;;;;;;17.50;16.25;;;;;23.25;58.37;102142.91;4915006;28;45319;-74
2021/09/06 10:11:39;;;;;;;;;15.50;14.50;;;;;23.23;58.11;102150.22;4916858;28;45358;-74
2021/09/06 10:14:15;;;;;;;;;16.75;15.00;;;;;23.20;57.91;102150.41;4922194;28;45455;-75
2021/09/06 10:16:41;;;;;;;;;16.50;15.50;;;;;23.18;57.96;102144.28;4923678;28;45454;-75
2021/09/06 10:19:09;;;;;;;;;17.25;15.25;;;;;23.21;57.99;102138.72;4923477;28;45379;-75
2021/09/06 10:21:40;;;;;;;;;15.50;13.50;;;;;23.24;57.70;102143.88;4901973;28;45988;-75
2021/09/06 10:24:16;;;;;;;;;14.00;12.25;;;;;23.35;57.56;102132.44;4922188;28;46285;-75
2021/09/06 10:26:42;;;;;;;;;15.00;14.75;;;;;23.39;57.62;102136.63;4921151;28;45948;-75
2021/09/06 10:29:13;;;;;;;;;17.00;15.00;;;;;23.42;57.72;102128.41;4904655;29;45317;-75
2021/09/06 10:31:38;;;;;;;;;13.75;12.50;;;;;23.47;57.81;102133.47;4916290;28;45712;-75
2021/09/06 10:34:03;;;;;;;;;18.75;14.75;;;;;23.48;57.25;102140.56;4919949;28;48240;-75
2021/09/06 10:36:29;;;;;;;;;18.25;15.75;;;;;23.49;57.55;102127.06;4923584;28;45267;-75
2021/09/06 10:39:02;;;;;;;;;16.75;15.00;;;;;23.52;57.22;102130.50;4905678;28;45739;-75
2021/09/06 10:41:28;;;;;;;;;12.75;12.25;;;;;23.64;56.98;102135.03;4903938;29;45307;-75
2021/09/06 10:44:08;;;;;;;;;15.00;15.00;;;;;23.75;56.90;102120.03;4904190;29;45325;-75
2021/09/06 10:46:34;;;;;;;;;13.75;13.75;;;;;23.84;56.05;102119.41;4904425;29;45363;-75
2021/09/06 10:49:05;;;;;;;;;15.25;13.75;;;;;23.97;55.61;102114.06;4913984;28;45594;-75
2021/09/06 10:51:35;;;;;;;;;13.50;13.50;;;;;24.08;55.25;102115.13;4906494;28;45310;-75
2021/09/06 10:54:04;;;;;;;;;14.00;13.00;;;;;24.18;55.54;102110.84;4909188;28;48252;-75
2021/09/06 10:56:31;;;;;;;;;15.75;13.25;;;;;24.25;54.69;102122.00;4922912;28;45461;-75
2021/09/06 10:58:57;;;;;;;;;11.75;11.00;;;;;24.33;54.88;102113.44;4918368;28;45212;-75
2021/09/06 11:01:23;;;;;;;;;14.50;11.75;;;;;24.38;54.36;102122.03;4904878;28;45221;-75
2021/09/06 11:03:51;;;;;;;;;12.75;12.75;;;;;24.38;53.92;102113.97;4912742;28;46223;-75
2021/09/06 11:06:19;;;;;;;;;15.75;15.00;;;;;24.50;53.20;102114.94;4918340;28;45609;-75